Time;durP1;ratioP1;P1;durP2;ratioP2;P2;SDS_P1;SDS_P2;PMS_P1;PMS_P2;Temp;Humidity;BMP_temperature;BMP_pressure;BME280_temperature;BME280_humidity;BME280_pressure;Samples;Min_cycle;Max_cycle;Signal;HPM_P1;HPM_P2
2022/08/26 00:01:28;;;;;;;8.88;6.12;;;;;;;24.50;84.01;99463.97;4489705;31;34694;-72
2022/08/26 00:04:15;;;;;;;12.95;6.57;;;;;;;24.69;83.47;99463.44;4477870;31;35007;-72
2022/08/26 00:07:03;;;;;;;9.82;6.30;;;;;;;24.05;86.49;99472.19;4481696;31;35499;-72
2022/08/26 00:09:50;;;;;;;9.57;7.05;;;;;;;24.43;85.59;99464.03;4489655;31;34129;-72
2022/08/26 00:12:40;;;;;;;10.77;6.43;;;;;;;24.57;84.34;99469.53;4491091;31;34687;-71
2022/08/26 00:15:26;;;;;;;13.15;6.32;;;;;;;24.63;84.11;99462.28;4489601;31;35963;-72
2022/08/26 00:18:13;;;;;;;12.48;6.80;;;;;;;24.50;84.92;99466.78;4481111;31;35527;-72
2022/08/26 00:21:08;;;;;;;14.87;6.20;;;;;;;24.14;86.67;99466.97;4489283;31;34161;-71
2022/08/26 00:23:55;;;;;;;11.73;6.30;;;;;;;23.31;92.54;99466.38;4491981;31;35593;-71
2022/08/26 00:26:42;;;;;;;8.80;5.80;;;;;;;23.84;90.29;99466.69;4481339;31;36034;-71
2022/08/26 00:29:31;;;;;;;11.20;6.30;;;;;;;24.33;86.47;99464.84;4491135;31;34673;-71
2022/08/26 00:32:23;;;;;;;10.70;5.70;;;;;;;24.35;86.10;99460.44;4490336;31;35228;-72
2022/08/26 00:35:11;;;;;;;10.80;6.15;;;;;;;24.27;86.33;99466.50;4491574;31;34603;-72
2022/08/26 00:38:00;;;;;;;10.88;6.93;;;;;;;24.16;87.05;99461.75;4483312;31;35676;-72
2022/08/26 00:40:54;;;;;;;8.90;5.75;;;;;;;24.09;87.50;99453.38;4481718;31;34622;-72
2022/08/26 00:43:41;;;;;;;9.40;5.87;;;;;;;24.05;87.85;99455.41;4480528;31;34214;-72
2022/08/26 00:46:34;;;;;;;10.68;5.75;;;;;;;23.93;88.36;99447.44;4491138;31;34604;-72
2022/08/26 00:49:36;;;;;;;13.65;6.07;;;;;;;23.84;89.00;99458.28;4481494;31;36001;-72
2022/08/26 00:52:23;;;;;;;10.68;6.10;;;;;;;23.91;88.33;99447.88;4481121;31;34537;-72
2022/08/26 00:55:17;;;;;;;11.23;5.87;;;;;;;23.77;89.27;99453.53;4478202;31;35079;-71
2022/08/26 00:58:06;;;;;;;10.85;6.25;;;;;;;23.82;88.88;99452.28;4484699;31;34598;-71
2022/08/26 01:00:53;;;;;;;12.10;5.90;;;;;;;23.63;89.96;99440.34;4479320;31;35935;-71
2022/08/26 01:03:41;;;;;;;9.55;5.93;;;;;;;23.57;90.16;99447.56;4491568;31;35172;-72
2022/08/26 01:06:28;;;;;;;10.75;6.45;;;;;;;23.52;90.56;99442.38;4482373;31;35182;-72
2022/08/26 01:09:15;;;;;;;13.65;6.75;;;;;;;23.46;90.86;99441.97;4491440;31;34712;-72
2022/08/26 01:12:03;;;;;;;11.32;6.62;;;;;;;23.39;91.46;99444.00;4480473;31;34483;-72
2022/08/26 01:14:49;;;;;;;10.77;6.15;;;;;;;23.27;92.30;99448.78;4468561;31;34633;-72
2022/08/26 01:17:37;;;;;;;10.13;6.25;;;;;;;23.22;92.72;99449.19;4471586;31;35235;-72
2022/08/26 01:20:26;;;;;;;15.25;6.25;;;;;;;23.21;92.79;99447.63;4475775;31;35586;-72
2022/08/26 01:23:13;;;;;;;13.05;6.45;;;;;;;23.12;93.44;99450.03;4488062;31;34670;-72
2022/08/26 01:26:37;;;;;;;14.85;6.60;;;;;;;23.21;92.29;99447.63;4476275;31;35045;-72
2022/08/26 01:29:24;;;;;;;13.23;6.55;;;;;;;23.28;91.88;99450.41;4476435;31;35125;-71
2022/08/26 01:32:15;;;;;;;16.45;6.18;;;;;;;23.14;92.86;99450.44;4482649;31;35555;-72
2022/08/26 01:35:02;;;;;;;;;;;;;;;23.19;92.25;99447.22;4479774;31;35022;-72
2022/08/26 01:37:50;;;;;;;14.00;6.47;;;;;;;23.14;92.70;99444.84;4472292;31;34827;-72
2022/08/26 01:40:42;;;;;;;9.68;6.20;;;;;;;23.09;92.89;99446.03;4478617;31;34060;-73
2022/08/26 01:43:30;;;;;;;11.27;6.22;;;;;;;23.15;92.35;99435.25;4480302;31;33618;-72
2022/08/26 01:46:17;;;;;;;9.82;6.72;;;;;;;23.08;92.52;99440.81;4477254;31;35296;-72
2022/08/26 01:49:05;;;;;;;14.27;6.70;;;;;;;22.84;94.44;99446.00;4479073;31;35574;-73
2022/08/26 01:51:54;;;;;;;14.50;6.53;;;;;;;22.03;99.98;99436.25;4482255;31;34213;-71
2022/08/26 01:54:41;;;;;;;13.30;6.47;;;;;;;22.23;100.00;99443.13;4484553;31;33276;-72
2022/08/26 01:57:31;;;;;;;13.57;7.73;;;;;;;22.45;99.63;99430.03;4488778;31;35607;-72
2022/08/26 02:00:18;;;;;;;11.65;6.28;;;;;;;22.73;97.60;99436.03;4478517;31;34645;-71
2022/08/26 02:03:17;;;;;;;10.25;6.28;;;;;;;23.17;94.48;99444.03;4483062;31;34122;-72
2022/08/26 02:06:06;;;;;;;11.15;5.80;;;;;;;23.16;94.13;99442.41;4481589;31;34580;-72
2022/08/26 02:08:56;;;;;;;13.70;6.40;;;;;;;23.37;92.36;99438.00;4478674;31;34952;-72
2022/08/26 02:11:44;;;;;;;14.13;6.80;;;;;;;23.29;92.53;99438.03;4478651;31;35507;-72
2022/08/26 02:14:40;;;;;;;10.13;6.18;;;;;;;23.19;92.93;99444.41;4487549;31;34122;-72
2022/08/26 02:17:37;;;;;;;12.40;7.47;;;;;;;23.18;93.14;99431.66;4478543;31;34612;-72
2022/08/26 02:20:23;;;;;;;12.85;6.30;;;;;;;23.17;92.62;99435.66;4477492;31;35915;-72
2022/08/26 02:23:12;;;;;;;10.13;5.93;;;;;;;23.11;92.63;99438.06;4489503;31;34687;-71
2022/08/26 02:26:04;;;;;;;10.57;6.05;;;;;;;23.07;93.32;99436.44;4490649;31;34173;-71
2022/08/26 02:29:04;;;;;;;11.98;7.43;;;;;;;22.55;95.90;99430.44;4481325;31;35635;-71
2022/08/26 02:31:54;;;;;;;12.10;5.95;;;;;;;22.59;95.38;99443.19;4482908;31;35995;-71
2022/08/26 02:34:41;;;;;;;14.40;6.40;;;;;;;22.71;95.11;99435.63;4480296;31;35476;-72
2022/08/26 02:37:30;;;;;;;11.73;6.28;;;;;;;22.79;94.90;99435.22;4476626;31;34862;-72
2022/08/26 02:40:20;;;;;;;12.15;6.18;;;;;;;22.83;94.36;99444.41;4477608;31;35453;-72
2022/08/26 02:43:07;;;;;;;13.52;6.28;;;;;;;22.83;94.53;99438.03;4480092;31;35202;-72
2022/08/26 02:45:53;;;;;;;11.80;6.32;;;;;;;22.74;94.75;99440.41;4479779;31;35438;-72
2022/08/26 02:48:40;;;;;;;12.85;6.40;;;;;;;22.53;96.19;99430.81;4490483;31;34240;-72
2022/08/26 02:51:27;;;;;;;11.25;5.90;;;;;;;22.54;96.51;99431.59;4489547;31;34622;-72
2022/08/26 02:54:13;;;;;;;14.35;6.12;;;;;;;22.84;94.22;99440.41;4477771;31;34016;-72
2022/08/26 02:56:59;;;;;;;13.00;6.20;;;;;;;22.50;95.73;99428.03;4491205;31;34477;-71
2022/08/26 02:59:45;;;;;;;12.60;6.45;;;;;;;22.89;93.45;99431.63;4487640;31;33710;-72
2022/08/26 03:02:32;;;;;;;12.82;6.15;;;;;;;22.48;95.35;99428.41;4484364;31;34712;-71
2022/08/26 03:05:20;;;;;;;10.32;6.07;;;;;;;22.38;96.03;99432.78;4488662;31;34959;-72
2022/08/26 03:08:10;;;;;;;13.30;5.97;;;;;;;22.64;94.74;99430.84;4477718;31;35468;-72
2022/08/26 03:10:57;;;;;;;12.13;5.97;;;;;;;22.71;93.89;99430.81;4486977;31;34202;-72
2022/08/26 03:13:46;;;;;;;11.12;6.40;;;;;;;22.67;94.33;99424.44;4490537;31;35172;-72
2022/08/26 03:16:36;;;;;;;11.23;6.43;;;;;;;22.55;95.00;99433.22;4488653;31;35995;-73
2022/08/26 03:19:24;;;;;;;10.18;6.10;;;;;;;22.53;95.61;99419.66;4478617;31;34674;-74
2022/08/26 03:22:11;;;;;;;12.40;6.40;;;;;;;22.48;95.54;99422.81;4489445;31;34212;-72
2022/08/26 03:25:02;;;;;;;14.98;6.57;;;;;;;22.59;94.58;99415.25;4481810;31;34696;-72
2022/08/26 03:27:48;;;;;;;12.52;6.65;;;;;;;22.24;96.39;99410.44;4494113;31;35005;-72
2022/08/26 03:30:41;;;;;;;13.23;6.70;;;;;;;22.23;96.63;99414.44;4478452;31;34571;-72
2022/08/26 03:33:30;;;;;;;16.48;6.75;;;;;;;22.24;96.74;99418.81;4486042;31;35100;-72
2022/08/26 03:36:17;;;;;;;12.73;6.85;;;;;;;21.90;99.02;99419.06;4491640;31;35465;-72
2022/08/26 03:39:03;;;;;;;11.43;6.03;;;;;;;22.21;97.92;99419.59;4478280;31;34971;-71
2022/08/26 03:41:51;;;;;;;10.10;6.03;;;;;;;22.25;97.68;99414.00;4489803;31;34705;-71
2022/08/26 03:44:39;;;;;;;13.70;6.50;;;;;;;22.48;95.09;99413.66;4488446;31;35041;-71
2022/08/26 03:47:27;;;;;;;10.85;7.03;;;;;;;22.27;96.40;99415.22;4487766;31;34344;-72
2022/08/26 03:50:16;;;;;;;11.93;6.10;;;;;;;22.34;95.95;99406.87;4493181;31;34929;-72
2022/08/26 03:53:08;;;;;;;12.50;6.80;;;;;;;21.93;98.06;99417.50;4479738;31;34817;-72
2022/08/26 03:55:58;;;;;;;12.82;6.68;;;;;;;21.83;99.00;99412.66;4491454;31;35049;-72
2022/08/26 03:58:45;;;;;;;12.88;6.37;;;;;;;22.34;95.70;99414.44;4487881;31;34641;-73
2022/08/26 04:01:31;;;;;;;15.35;7.32;;;;;;;22.00;97.71;99414.75;4488345;31;35070;-73
2022/08/26 04:04:17;;;;;;;16.60;6.68;;;;;;;22.25;97.00;99414.81;4491589;31;35550;-73
2022/08/26 04:07:07;;;;;;;14.52;5.78;;;;;;;21.54;100.00;99416.13;4494767;31;34827;-73
2022/08/26 04:09:55;;;;;;;16.37;6.25;;;;;;;22.14;96.52;99405.59;4478013;31;35455;-73
2022/08/26 04:12:42;;;;;;;13.90;6.78;;;;;;;21.87;98.21;99416.28;4490015;31;34584;-73
2022/08/26 04:15:28;;;;;;;11.88;6.53;;;;;;;21.89;98.23;99409.13;4479988;31;35462;-73
2022/08/26 04:18:15;;;;;;;18.10;6.45;;;;;;;21.16;100.00;99413.87;4491910;31;34917;-73
2022/08/26 04:21:01;;;;;;;16.55;6.45;;;;;;;21.52;100.00;99418.50;4482122;31;37432;-73
2022/08/26 04:23:53;;;;;;;14.50;6.70;;;;;;;22.26;96.94;99410.06;4494013;31;35753;-73
2022/08/26 04:26:41;;;;;;;14.65;7.18;;;;;;;20.76;100.00;99419.16;4479572;31;34354;-73
2022/08/26 04:29:28;;;;;;;13.07;6.55;;;;;;;20.84;100.00;99412.47;4481806;31;34106;-73
2022/08/26 04:32:15;;;;;;;12.23;6.07;;;;;;;21.90;100.00;99416.28;4473811;31;34709;-73
2022/08/26 04:35:03;;;;;;;10.27;6.18;;;;;;;22.16;100.00;99422.72;4484090;31;34965;-73
2022/08/26 04:37:51;;;;;;;12.37;5.97;;;;;;;22.27;99.69;99418.00;4489740;31;35518;-72
2022/08/26 04:40:42;;;;;;;15.48;6.57;;;;;;;22.13;100.00;99418.75;4492356;31;33856;-73
2022/08/26 04:43:32;;;;;;;13.80;6.03;;;;;;;21.94;100.00;99422.69;4484970;31;34678;-72
2022/08/26 04:46:23;;;;;;;13.25;6.53;;;;;;;21.99;100.00;99422.28;4489524;31;34640;-72
2022/08/26 04:49:11;;;;;;;11.02;6.07;;;;;;;22.04;100.00;99420.31;4477711;31;34656;-72
2022/08/26 04:51:57;;;;;;;13.43;5.80;;;;;;;22.36;100.00;99423.22;4478015;31;33994;-72
2022/08/26 04:54:43;;;;;;;16.85;6.97;;;;;;;22.39;100.00;99420.41;4476408;31;34718;-76
2022/08/26 04:57:30;;;;;;;14.32;7.03;;;;;;;22.07;100.00;99419.53;4484862;31;35660;-82
2022/08/26 05:00:17;;;;;;;13.73;6.50;;;;;;;22.65;99.26;99426.84;4478561;31;36036;-83
2022/08/26 05:03:04;;;;;;;12.57;6.47;;;;;;;22.31;100.00;99427.19;4483439;31;34177;-84
2022/08/26 05:05:50;;;;;;;13.07;7.75;;;;;;;22.56;99.14;99424.44;4482147;31;34804;-82
2022/08/26 05:08:37;;;;;;;12.98;6.95;;;;;;;22.56;99.20;99427.22;4481946;31;34510;-84
2022/08/26 05:11:24;;;;;;;13.82;7.18;;;;;;;22.35;100.00;99430.00;4479073;31;34213;-84
2022/08/26 05:14:10;;;;;;;16.37;7.00;;;;;;;21.56;100.00;99424.88;4495620;31;34507;-83
2022/08/26 05:16:56;;;;;;;15.27;6.78;;;;;;;22.17;100.00;99432.69;4479179;31;34263;-82
2022/08/26 05:19:43;;;;;;;16.60;7.47;;;;;;;22.05;100.00;99427.47;4468658;31;34984;-82
2022/08/26 05:22:29;;;;;;;14.50;6.85;;;;;;;22.13;100.00;99432.69;4479241;31;33156;-82
2022/08/26 05:25:16;;;;;;;21.55;7.00;;;;;;;22.40;100.00;99422.03;4489386;31;34213;-81
2022/08/26 05:28:03;;;;;;;19.77;7.12;;;;;;;22.70;100.00;99426.44;4486368;31;35597;-82
2022/08/26 05:30:51;;;;;;;18.10;6.85;;;;;;;22.81;100.00;99432.03;4478393;31;35812;-83
2022/08/26 05:33:37;;;;;;;14.45;6.20;;;;;;;22.75;100.00;99426.06;4478288;31;34144;-83
2022/08/26 05:36:28;;;;;;;20.37;6.95;;;;;;;23.25;99.09;99425.25;4472333;31;35137;-81
2022/08/26 05:39:16;;;;;;;15.93;6.80;;;;;;;23.41;98.22;99428.41;4494139;31;34275;-81
2022/08/26 05:42:04;;;;;;;19.27;7.20;;;;;;;23.47;98.32;99434.38;4492369;31;34917;-80
2022/08/26 05:44:52;;;;;;;18.75;6.93;;;;;;;23.59;97.70;99428.34;4475648;31;35224;-80
2022/08/26 05:47:40;;;;;;;17.08;8.00;;;;;;;23.94;97.23;99433.06;4490215;31;35067;-82
2022/08/26 05:50:27;;;;;;;18.48;7.28;;;;;;;22.55;100.00;99431.22;4502370;31;34682;-82
2022/08/26 05:53:16;;;;;;;18.65;7.00;;;;;;;22.69;100.00;99430.44;4465902;31;35888;-78
2022/08/26 05:56:03;;;;;;;16.58;7.07;;;;;;;22.41;100.00;99434.00;4490502;31;34325;-79
2022/08/26 05:58:50;;;;;;;18.23;6.43;;;;;;;22.87;100.00;99431.22;4490309;31;34910;-79
2022/08/26 06:01:38;;;;;;;13.77;6.30;;;;;;;22.98;100.00;99433.28;4479031;31;34691;-78
2022/08/26 06:04:25;;;;;;;17.73;6.75;;;;;;;23.22;100.00;99429.63;4479386;31;34547;-79
2022/08/26 06:07:12;;;;;;;15.02;6.07;;;;;;;23.49;100.00;99441.19;4481441;31;34619;-79
2022/08/26 06:09:59;;;;;;;13.90;5.97;;;;;;;23.06;99.86;99440.44;4475954;31;34078;-79
2022/08/26 06:13:05;;;;;;;16.33;5.30;;;;;;;23.53;96.47;99441.16;4472205;31;34565;-78
2022/08/26 06:15:58;;;;;;;17.60;6.75;;;;;;;24.33;90.17;99437.63;4475071;31;34998;-78
2022/08/26 06:18:46;;;;;;;12.35;5.07;;;;;;;23.39;96.46;99450.38;4486621;31;34703;-78
2022/08/26 06:21:34;;;;;;;17.42;5.40;;;;;;;23.69;93.23;99449.91;4468149;31;34060;-78
2022/08/26 06:27:26;;;;;;;15.45;4.95;;;;;;;23.95;91.32;99450.66;4482321;31;35029;-77
2022/08/26 06:30:18;;;;;;;15.40;5.70;;;;;;;23.74;88.57;99446.72;4477323;32;34574;-77
2022/08/26 06:36:42;;;;;;;13.85;5.00;;;;;;;25.45;80.52;99452.44;4498344;31;34614;-78
2022/08/26 06:39:30;;;;;;;17.25;5.00;;;;;;;25.86;80.12;99445.97;4473277;31;35018;-79
2022/08/26 06:42:16;;;;;;;14.48;4.82;;;;;;;26.06;74.08;99448.16;4471223;31;34298;-81
2022/08/26 06:45:04;;;;;;;13.25;5.05;;;;;;;26.19;74.79;99447.16;4476037;31;34121;-80
2022/08/26 06:47:51;;;;;;;14.75;5.05;;;;;;;26.15;70.68;99445.59;4471683;31;34255;-81
2022/08/26 06:50:37;;;;;;;12.45;5.62;;;;;;;25.87;70.33;99441.97;4468560;31;34801;-81
2022/08/26 06:53:26;;;;;;;15.27;6.35;;;;;;;26.07;68.05;99444.09;4477895;31;34570;-82
2022/08/26 06:56:17;;;;;;;17.23;5.80;;;;;;;26.32;69.35;99433.34;4477749;31;33781;-77
2022/08/26 06:59:05;;;;;;;17.40;5.10;;;;;;;26.59;65.81;99435.41;4476643;31;35565;-79
2022/08/26 07:01:53;;;;;;;12.02;5.12;;;;;;;26.92;61.86;99431.66;4474721;31;34537;-79
2022/08/26 07:04:40;;;;;;;13.45;4.60;;;;;;;27.11;54.94;99429.31;4474732;31;34516;-80
2022/08/26 07:07:26;;;;;;;8.77;4.55;;;;;;;26.33;53.61;99429.31;4483684;31;33702;-79
2022/08/26 07:10:14;;;;;;;15.48;4.43;;;;;;;26.37;52.75;99437.69;4475505;31;35550;-80
2022/08/26 07:13:00;;;;;;;12.05;4.50;;;;;;;26.67;52.04;99436.87;4488349;31;34676;-80
2022/08/26 07:15:48;;;;;;;14.20;4.85;;;;;;;27.31;48.97;99435.78;4482355;31;33511;-80
2022/08/26 07:18:42;;;;;;;16.62;4.85;;;;;;;27.38;51.31;99437.72;4470868;31;33109;-78
2022/08/26 07:21:30;;;;;;;17.75;5.10;;;;;;;27.82;46.19;99443.31;4468084;31;34652;-78
2022/08/26 07:24:17;;;;;;;14.70;5.22;;;;;;;27.81;46.24;99445.34;4471977;31;35460;-78
2022/08/26 07:27:07;;;;;;;10.98;4.85;;;;;;;27.70;46.63;99444.72;4480471;31;34336;-78
2022/08/26 07:29:57;;;;;;;14.80;4.50;;;;;;;27.64;46.34;99441.62;4475136;31;33771;-78
2022/08/26 07:32:43;;;;;;;15.40;4.97;;;;;;;28.00;46.72;99436.06;4486290;31;34647;-77
2022/08/26 07:35:29;;;;;;;15.68;5.10;;;;;;;27.83;47.14;99430.81;4484730;31;34847;-78
2022/08/26 07:38:16;;;;;;;12.85;4.80;;;;;;;27.64;47.97;99433.19;4477072;31;34544;-78
2022/08/26 07:41:02;;;;;;;17.75;5.90;;;;;;;27.69;45.86;99434.69;4488548;31;34258;-77
2022/08/26 07:43:49;;;;;;;16.67;4.70;;;;;;;28.09;46.21;99432.69;4479200;31;35465;-77
2022/08/26 07:46:36;;;;;;;12.82;4.75;;;;;;;28.24;46.78;99433.97;4478924;31;34995;-77
2022/08/26 07:49:23;;;;;;;14.63;5.47;;;;;;;28.69;45.19;99436.16;4471608;31;35516;-77
2022/08/26 07:52:10;;;;;;;13.60;5.25;;;;;;;28.61;46.07;99433.97;4476855;31;34140;-77
2022/08/26 07:54:59;;;;;;;13.90;5.00;;;;;;;28.73;44.89;99429.66;4490560;31;34680;-77
2022/08/26 07:57:46;;;;;;;14.93;5.40;;;;;;;28.94;44.69;99429.09;4491798;31;34981;-79
2022/08/26 08:00:34;;;;;;;17.60;5.30;;;;;;;29.23;44.56;99425.56;4479398;31;34799;-79
2022/08/26 08:03:21;;;;;;;18.02;6.05;;;;;;;29.04;45.90;99430.91;4480290;31;34112;-80
2022/08/26 08:06:07;;;;;;;17.42;5.00;;;;;;;28.80;46.96;99432.28;4468148;31;34771;-79
2022/08/26 08:08:55;;;;;;;28.65;6.68;;;;;;;28.53;45.18;99433.34;4493312;31;35529;-81
2022/08/26 08:11:43;;;;;;;15.82;5.95;;;;;;;28.88;45.12;99422.41;4481600;31;33636;-79
2022/08/26 08:14:30;;;;;;;14.90;5.18;;;;;;;29.25;46.00;99423.91;4478386;31;34305;-76
2022/08/26 08:17:16;;;;;;;20.55;6.10;;;;;;;29.14;46.35;99417.75;4470331;31;35499;-79
2022/08/26 08:20:05;;;;;;;19.27;5.50;;;;;;;29.07;46.71;99432.84;4478969;31;34491;-77
2022/08/26 08:22:53;;;;;;;13.43;5.18;;;;;;;29.44;45.93;99425.00;4474996;31;35172;-76
2022/08/26 08:25:40;;;;;;;14.45;5.55;;;;;;;29.68;45.46;99416.31;4465973;31;33985;-79
2022/08/26 08:28:26;;;;;;;18.00;5.53;;;;;;;29.91;44.09;99423.72;4490726;31;34619;-77
2022/08/26 08:31:20;;;;;;;16.83;5.47;;;;;;;29.50;43.52;99414.75;4475925;31;34835;-77
2022/08/26 08:34:27;;;;;;;17.08;5.32;;;;;;;29.77;45.62;99417.25;4472711;31;35541;-77
2022/08/26 08:37:14;;;;;;;14.55;5.47;;;;;;;30.07;44.06;99418.00;4484501;31;35136;-79
2022/08/26 08:40:02;;;;;;;18.52;5.75;;;;;;;30.01;45.01;99417.75;4486612;31;34233;-77
2022/08/26 08:43:02;;;;;;;15.18;5.75;;;;;;;29.89;43.35;99415.72;4463958;31;34520;-77
2022/08/26 08:45:56;;;;;;;17.77;6.05;;;;;;;29.58;43.37;99415.38;4479439;31;34574;-77
2022/08/26 08:48:51;;;;;;;15.70;5.60;;;;;;;29.70;43.95;99416.66;4476884;31;33560;-78
2022/08/26 08:52:08;;;;;;;14.23;5.87;;;;;;;30.22;43.30;99405.03;4483417;32;34672;-79
2022/08/26 08:54:57;;;;;;;15.60;5.35;;;;;;;30.50;42.78;99415.91;4483088;31;35070;-78
2022/08/26 08:58:02;;;;;;;18.50;5.62;;;;;;;30.97;41.53;99409.56;4479369;31;34555;-79
2022/08/26 09:00:53;;;;;;;14.02;5.10;;;;;;;30.92;41.47;99408.88;4475532;31;34239;-77
2022/08/26 09:04:18;;;;;;;9.75;5.32;;;;;;;31.14;42.24;99397.63;4476242;31;35530;-78
2022/08/26 09:07:09;;;;;;;16.80;5.53;;;;;;;30.57;42.07;99393.03;4443018;31;34945;-78
2022/08/26 09:10:03;;;;;;;19.40;6.45;;;;;;;31.57;40.53;99396.09;4460417;32;34349;-76
2022/08/26 09:12:50;;;;;;;17.87;5.28;;;;;;;31.62;40.75;99397.56;4477075;31;34210;-77
2022/08/26 09:16:01;;;;;;;16.52;5.60;;;;;;;31.77;39.24;99392.94;4481643;31;34610;-78
2022/08/26 09:19:06;;;;;;;12.85;6.00;;;;;;;31.29;38.50;99389.41;4486194;32;34999;-78
2022/08/26 09:21:57;;;;;;;12.85;5.37;;;;;;;32.16;38.81;99390.69;4492688;31;34726;-78
2022/08/26 09:24:43;;;;;;;16.87;5.87;;;;;;;31.98;38.01;99387.72;4484398;31;35046;-78
2022/08/26 09:27:38;;;;;;;16.83;5.78;;;;;;;31.70;40.08;99390.34;4474322;31;34652;-78
2022/08/26 09:30:31;;;;;;;19.45;5.20;;;;;;;31.54;37.22;99376.44;4496190;31;35946;-78
2022/08/26 09:33:18;;;;;;;17.58;6.05;;;;;;;31.89;39.23;99377.09;4487704;31;35544;-79
2022/08/26 09:36:44;;;;;;;13.95;5.95;;;;;;;32.10;37.21;99384.00;4484319;31;34329;-79
2022/08/26 09:39:33;;;;;;;13.65;5.30;;;;;;;32.53;38.02;99376.66;4497538;31;33526;-77
2022/08/26 09:42:22;;;;;;;20.23;5.60;;;;;;;32.80;39.10;99375.94;4477173;32;35018;-78
2022/08/26 09:45:11;;;;;;;16.42;5.37;;;;;;;32.44;35.94;99370.94;4473720;32;34632;-79
2022/08/26 09:47:59;;;;;;;17.08;5.50;;;;;;;32.72;37.72;99376.72;4467551;32;34235;-78
2022/08/26 09:51:01;;;;;;;16.17;5.15;;;;;;;32.64;35.50;99374.16;4457971;32;34537;-78
2022/08/26 09:53:56;;;;;;;16.73;5.57;;;;;;;32.63;37.19;99366.91;4473652;32;35046;-78
2022/08/26 09:56:45;;;;;;;16.95;5.43;;;;;;;33.13;34.94;99361.97;4486164;32;34662;-78
2022/08/26 09:59:32;;;;;;;18.83;5.15;;;;;;;33.12;34.75;99360.37;4486256;32;34268;-78
2022/08/26 10:06:57;;;;;;;15.60;4.80;;;;;;;33.68;32.79;99366.06;4486046;32;35039;-77
2022/08/26 10:09:43;;;;;;;16.98;5.60;;;;;;;33.64;34.69;99362.59;4490993;31;34622;-77
2022/08/26 10:12:32;;;;;;;15.80;4.57;;;;;;;33.24;33.89;99360.72;4501882;31;34247;-77
2022/08/26 10:15:20;;;;;;;28.08;5.95;;;;;;;33.40;32.00;99354.72;4488069;31;35520;-78
2022/08/26 10:18:14;;;;;;;18.23;4.95;;;;;;;34.19;34.01;99354.72;4476612;31;35965;-79
2022/08/26 10:21:15;;;;;;;18.50;5.90;;;;;;;34.35;33.20;99353.53;4485057;32;34643;-78
2022/08/26 10:24:03;;;;;;;14.63;4.85;;;;;;;34.41;32.50;99345.13;4477667;31;34086;-78
2022/08/26 10:30:58;;;;;;;15.18;5.43;;;;;;;35.03;29.71;99343.66;4494500;31;92737;-78
2022/08/26 10:33:45;;;;;;;15.07;5.40;;;;;;;34.83;29.34;99339.38;4485187;31;34659;-78
2022/08/26 10:36:48;;;;;;;15.25;5.12;;;;;;;34.41;30.60;99340.25;4477466;32;34083;-78
2022/08/26 10:40:00;;;;;;;15.32;4.82;;;;;;;33.62;30.87;99342.41;4493829;31;34630;-78
2022/08/26 10:42:55;;;;;;;21.75;5.78;;;;;;;34.87;28.64;99334.28;4498669;31;35108;-78
2022/08/26 10:45:46;;;;;;;16.17;5.30;;;;;;;34.37;28.89;99327.47;4479956;31;35439;-78
2022/08/26 10:48:47;;;;;;;17.42;4.50;;;;;;;34.65;30.00;99337.44;4480682;31;35161;-78
2022/08/26 10:51:42;;;;;;;17.48;5.32;;;;;;;35.40;27.58;99329.91;4483157;31;34666;-79
2022/08/26 10:54:38;;;;;;;15.15;4.32;;;;;;;35.12;27.78;99329.38;4474594;31;34957;-79
2022/08/26 10:57:43;;;;;;;14.50;4.25;;;;;;;35.68;28.29;99324.75;4479353;31;34188;-79
2022/08/26 11:03:48;;;;;;;13.73;4.82;;;;;;;36.40;26.20;99327.22;4482595;31;34601;-80
2022/08/26 11:06:35;;;;;;;12.68;4.90;;;;;;;34.73;25.58;99315.13;4492020;31;35021;-80
2022/08/26 11:09:44;;;;;;;11.73;4.20;;;;;;;33.59;28.18;99316.53;4477327;31;34560;-82
2022/08/26 11:12:37;;;;;;;15.90;4.50;;;;;;;34.29;27.20;99309.97;4475262;31;34168;-77
2022/08/26 11:15:28;;;;;;;16.25;5.47;;;;;;;35.26;26.83;99305.81;4492344;31;35541;-78
2022/08/26 11:18:53;;;;;;;20.23;4.20;;;;;;;35.30;27.04;99312.12;4483591;31;34918;-77
2022/08/26 11:22:16;;;;;;;12.00;4.53;;;;;;;35.62;24.50;99303.91;4423985;32;35865;-78
2022/08/26 11:25:11;;;;;;;10.93;4.40;;;;;;;36.15;26.06;99303.00;4445524;32;35130;-81
2022/08/26 11:27:58;;;;;;;15.38;4.45;;;;;;;37.12;25.08;99305.88;4482777;31;34575;-79
2022/08/26 11:30:47;;;;;;;16.08;4.65;;;;;;;37.03;24.99;99300.28;4493627;31;34930;-79
2022/08/26 11:33:42;;;;;;;14.20;4.90;;;;;;;36.90;24.19;99300.66;4479482;31;34662;-78
2022/08/26 11:36:44;;;;;;;9.48;4.60;;;;;;;35.98;24.49;99299.06;4489240;31;35037;-78
2022/08/26 11:39:46;;;;;;;22.45;4.43;;;;;;;35.94;25.18;99299.25;4487931;31;34635;-79
2022/08/26 11:42:51;;;;;;;18.12;4.95;;;;;;;36.77;25.47;99291.66;4483960;31;34925;-78
2022/08/26 11:45:40;;;;;;;12.40;4.70;;;;;;;37.16;24.36;99282.78;4481054;31;34614;-78
2022/08/26 11:48:38;;;;;;;20.02;5.10;;;;;;;36.67;23.10;99280.41;4494674;31;35062;-78
2022/08/26 11:51:25;;;;;;;11.65;4.50;;;;;;;37.82;24.42;99279.00;4477792;31;34634;-77
2022/08/26 11:54:14;;;;;;;13.98;4.47;;;;;;;38.40;20.84;99274.00;4482503;31;34886;-76
2022/08/26 11:57:01;;;;;;;16.87;4.50;;;;;;;38.52;20.86;99269.09;4491680;31;34691;-76
2022/08/26 11:59:55;;;;;;;12.48;4.37;;;;;;;36.32;24.62;99265.34;4480148;31;35249;-76
2022/08/26 12:02:42;;;;;;;20.40;4.95;;;;;;;37.31;23.24;99263.47;4490218;31;34625;-76
2022/08/26 12:05:34;;;;;;;13.70;4.53;;;;;;;38.14;23.13;99265.50;4479951;31;34996;-76
2022/08/26 12:08:26;;;;;;;13.77;4.50;;;;;;;38.30;21.86;99264.00;4468209;31;34698;-77
2022/08/26 12:11:22;;;;;;;13.20;4.87;;;;;;;38.66;21.76;99261.63;4483627;31;34232;-77
2022/08/26 12:14:21;;;;;;;14.10;4.32;;;;;;;38.22;21.81;99254.34;4492153;31;34653;-76
2022/08/26 12:17:17;;;;;;;20.20;5.22;;;;;;;39.11;20.93;99251.09;4477483;31;35138;-75
2022/08/26 12:20:05;;;;;;;14.90;4.85;;;;;;;36.05;23.21;99244.50;4482870;31;35408;-75
2022/08/26 12:22:51;;;;;;;15.25;5.00;;;;;;;37.92;23.18;99251.03;4483013;31;34165;-74
2022/08/26 12:25:39;;;;;;;21.27;5.20;;;;;;;38.65;21.60;99243.66;4491053;31;35449;-75
2022/08/26 12:28:25;;;;;;;13.45;5.10;;;;;;;38.24;21.55;99231.72;4490536;31;34923;-75
2022/08/26 12:31:21;;;;;;;14.30;4.75;;;;;;;38.82;21.51;99240.06;4480808;31;35440;-75
2022/08/26 12:34:10;;;;;;;14.02;4.43;;;;;;;38.54;21.24;99226.44;4491000;31;35257;-76
2022/08/26 12:37:03;;;;;;;12.37;4.57;;;;;;;36.03;23.00;99235.62;4474853;31;35565;-74
2022/08/26 12:39:52;;;;;;;15.73;4.87;;;;;;;37.61;21.68;99223.25;4475832;31;35030;-75
2022/08/26 12:42:40;;;;;;;15.25;4.28;;;;;;;36.77;23.20;99226.00;4482119;31;35523;-75
2022/08/26 12:45:35;;;;;;;13.35;4.55;;;;;;;36.52;22.82;99218.94;4491202;31;34716;-75
2022/08/26 12:48:26;;;;;;;15.80;4.78;;;;;;;37.97;22.60;99222.50;4479524;31;35504;-74
2022/08/26 12:51:28;;;;;;;10.55;4.25;;;;;;;37.93;22.51;99213.31;4480916;31;35039;-76
2022/08/26 12:54:16;;;;;;;16.45;4.62;;;;;;;38.13;22.45;99208.78;4481045;31;34746;-76
2022/08/26 12:57:10;;;;;;;15.05;4.75;;;;;;;37.70;21.14;99206.66;4492232;31;34272;-76
2022/08/26 13:00:28;;;;;;;12.45;4.30;;;;;;;38.18;21.31;99205.19;4480514;31;34587;-76
2022/08/26 13:03:33;;;;;;;15.52;4.18;;;;;;;38.47;23.13;99204.03;4480321;31;35009;-76
2022/08/26 13:06:19;;;;;;;13.30;4.93;;;;;;;38.82;21.24;99195.03;4489614;31;34464;-76
2022/08/26 13:09:08;;;;;;;10.60;5.43;;;;;;;37.91;21.51;99201.63;4488893;31;34389;-76
2022/08/26 13:11:56;;;;;;;12.00;4.57;;;;;;;38.76;21.37;99204.91;4491733;31;34689;-75
2022/08/26 13:14:42;;;;;;;14.32;4.90;;;;;;;38.61;20.66;99185.09;4468868;31;35843;-76
2022/08/26 13:17:29;;;;;;;16.10;4.30;;;;;;;39.24;20.08;99187.56;4479152;31;34601;-75
2022/08/26 13:20:16;;;;;;;11.75;4.30;;;;;;;37.11;21.35;99178.63;4479280;31;35079;-76
2022/08/26 13:23:02;;;;;;;17.48;5.40;;;;;;;36.74;21.30;99172.78;4491975;31;34730;-75
2022/08/26 13:25:50;;;;;;;17.35;4.65;;;;;;;35.69;23.17;99168.81;4482438;31;34650;-75
2022/08/26 13:28:36;;;;;;;14.68;4.75;;;;;;;36.88;22.40;99172.66;4480759;31;34609;-75
2022/08/26 13:31:22;;;;;;;9.70;4.10;;;;;;;37.95;23.16;99175.69;4480995;31;34149;-75